createdAt,value
2018-05-29T00:01:55.097Z,100326
2018-05-29T00:04:21.941Z,100326
2018-05-29T00:06:48.777Z,100323
2018-05-29T00:09:15.622Z,100324
2018-05-29T00:11:42.455Z,100319
2018-05-29T00:14:08.566Z,100330
2018-05-29T00:16:34.662Z,100322
2018-05-29T00:19:00.771Z,100326
2018-05-29T00:21:26.870Z,100321
2018-05-29T00:23:53.710Z,100304
2018-05-29T00:26:19.802Z,100309
2018-05-29T00:28:45.901Z,100305
2018-05-29T00:31:11.986Z,100289
2018-05-29T00:33:38.838Z,100300
2018-05-29T00:36:05.674Z,100285
2018-05-29T00:38:32.538Z,100289
2018-05-29T00:40:58.630Z,100292
2018-05-29T00:43:24.722Z,100291
2018-05-29T00:45:50.811Z,100284
2018-05-29T00:48:16.914Z,100281
2018-05-29T00:50:43.018Z,100283
2018-05-29T00:53:09.110Z,100278
2018-05-29T00:55:36.982Z,100275
2018-05-29T00:58:24.489Z,100270
2018-05-29T01:00:50.581Z,100270
2018-05-29T01:03:16.682Z,100269
2018-05-29T01:05:42.778Z,100275
2018-05-29T01:08:08.865Z,100274
2018-05-29T01:10:34.950Z,100269
2018-05-29T01:13:01.791Z,100278
2018-05-29T01:15:27.889Z,100280
2018-05-29T01:17:53.981Z,100284
2018-05-29T01:20:20.074Z,100281
2018-05-29T01:22:46.171Z,100293
2018-05-29T01:25:12.271Z,100288
2018-05-29T01:27:39.109Z,100284
2018-05-29T01:30:06.516Z,100284
2018-05-29T01:32:32.602Z,100285
2018-05-29T01:34:59.438Z,100281
2018-05-29T01:37:26.266Z,100280
2018-05-29T01:39:52.361Z,100266
2018-05-29T01:42:18.450Z,100273
2018-05-29T01:44:44.585Z,100273
2018-05-29T01:47:10.673Z,100263
2018-05-29T01:49:36.753Z,100261
2018-05-29T01:52:02.846Z,100263
2018-05-29T01:54:29.670Z,100264
2018-05-29T01:56:55.774Z,100257
2018-05-29T01:59:21.854Z,100255
2018-05-29T02:01:48.959Z,100255
2018-05-29T02:04:15.069Z,100247
2018-05-29T02:06:41.178Z,100234
2018-05-29T02:09:07.269Z,100239
2018-05-29T02:11:33.372Z,100236
2018-05-29T02:13:59.462Z,100233
2018-05-29T02:16:25.566Z,100232
2018-05-29T02:18:51.662Z,100222
2018-05-29T02:21:18.545Z,100227
2018-05-29T02:23:44.627Z,100228
2018-05-29T02:26:11.461Z,100232
2018-05-29T02:28:37.555Z,100222
2018-05-29T02:31:03.652Z,100224
2018-05-29T02:33:29.742Z,100221
2018-05-29T02:35:56.583Z,100216
2018-05-29T02:38:22.687Z,100210
2018-05-29T02:40:48.799Z,100216
2018-05-29T02:43:14.885Z,100211
2018-05-29T02:45:40.966Z,100217
2018-05-29T02:48:07.067Z,100210
2018-05-29T02:50:33.167Z,100214
2018-05-29T02:52:59.261Z,100215
2018-05-29T02:55:25.346Z,100216
2018-05-29T02:57:51.441Z,100216
2018-05-29T03:00:17.539Z,100214
2018-05-29T03:02:43.645Z,100222
2018-05-29T03:05:09.734Z,100217
2018-05-29T03:07:35.843Z,100217
2018-05-29T03:10:01.945Z,100221
2018-05-29T03:12:28.050Z,100214
2018-05-29T03:14:54.142Z,100209
2018-05-29T03:17:20.237Z,100215
2018-05-29T03:19:47.074Z,100216
2018-05-29T03:22:13.918Z,100214
2018-05-29T03:24:40.762Z,100215
2018-05-29T03:27:07.610Z,100225
2018-05-29T03:29:34.440Z,100217
2018-05-29T03:32:01.280Z,100219
2018-05-29T03:34:28.141Z,100211
2018-05-29T03:36:54.994Z,100213
2018-05-29T03:39:21.084Z,100213
2018-05-29T03:41:47.173Z,100221
2018-05-29T03:44:13.270Z,100212
2018-05-29T03:46:39.361Z,100208
2018-05-29T03:49:05.454Z,100214
2018-05-29T03:51:31.537Z,100213
2018-05-29T03:53:58.378Z,100211
2018-05-29T03:56:25.210Z,100210
2018-05-29T03:58:52.058Z,100206
2018-05-29T04:01:19.686Z,100212
2018-05-29T04:03:45.815Z,100207
2018-05-29T04:06:11.906Z,100211
2018-05-29T04:08:38.015Z,100207
2018-05-29T04:11:04.103Z,100210
2018-05-29T04:13:30.193Z,100211
2018-05-29T04:15:56.278Z,100203
2018-05-29T04:18:23.119Z,100207
2018-05-29T04:20:49.958Z,100202
2018-05-29T04:23:16.809Z,100214
2018-05-29T04:25:44.290Z,100206
2018-05-29T04:28:10.382Z,100205
2018-05-29T04:30:37.209Z,100208
2018-05-29T04:33:03.309Z,100207
2018-05-29T04:35:29.393Z,100208
2018-05-29T04:37:55.510Z,100206
2018-05-29T04:40:22.342Z,100208
2018-05-29T04:42:48.434Z,100208
2018-05-29T04:45:14.539Z,100207
2018-05-29T04:47:40.642Z,100193
2018-05-29T04:50:06.746Z,100186
2018-05-29T04:52:33.581Z,100184
2018-05-29T04:54:59.686Z,100188
2018-05-29T04:57:25.769Z,100187
2018-05-29T04:59:51.894Z,100184
2018-05-29T05:02:17.982Z,100194
2018-05-29T05:04:44.091Z,100193
2018-05-29T05:07:10.183Z,100193
2018-05-29T05:09:36.281Z,100187
2018-05-29T05:12:03.118Z,100194
2018-05-29T05:14:29.961Z,100195
2018-05-29T05:16:56.799Z,100194
2018-05-29T05:19:23.637Z,100197
2018-05-29T05:21:49.726Z,100205
2018-05-29T05:24:15.832Z,100202
2018-05-29T05:26:41.925Z,100203
2018-05-29T05:29:08.038Z,100206
2018-05-29T05:31:34.144Z,100197
2018-05-29T05:34:00.250Z,100207
2018-05-29T05:36:26.337Z,100206
2018-05-29T05:38:53.178Z,100215
2018-05-29T05:41:26.817Z,100212
2018-05-29T05:43:52.910Z,100211
2018-05-29T05:46:19.754Z,100208
2018-05-29T05:48:45.838Z,100206
2018-05-29T05:51:11.929Z,100210
2018-05-29T05:53:38.005Z,100205
2018-05-29T05:56:04.102Z,100197
2018-05-29T05:58:30.226Z,100195
2018-05-29T06:00:56.315Z,100191
2018-05-29T06:03:22.406Z,100195
2018-05-29T06:05:48.497Z,100193
2018-05-29T06:08:14.577Z,100193
2018-05-29T06:10:41.419Z,100190
2018-05-29T06:13:08.251Z,100178
2018-05-29T06:15:34.345Z,100181
2018-05-29T06:18:00.440Z,100179
2018-05-29T06:20:26.890Z,100168
2018-05-29T06:22:52.973Z,100157
2018-05-29T06:25:19.809Z,100143
2018-05-29T06:27:45.898Z,100131
2018-05-29T06:30:11.990Z,100131
2018-05-29T06:32:38.086Z,100118
2018-05-29T06:35:04.913Z,100126
2018-05-29T06:37:31.002Z,100120
2018-05-29T06:39:57.090Z,100096
2018-05-29T06:42:23.926Z,100091
2018-05-29T06:44:50.804Z,100095
2018-05-29T06:47:17.610Z,100104
2018-05-29T06:49:44.437Z,100116
2018-05-29T06:52:10.531Z,100117
2018-05-29T06:54:36.621Z,100123
2018-05-29T06:57:03.450Z,100117
2018-05-29T06:59:30.278Z,100123
2018-05-29T07:01:56.382Z,100111
2018-05-29T07:04:22.913Z,100111
2018-05-29T07:06:49.110Z,100089
2018-05-29T07:09:28.521Z,100103
2018-05-29T07:11:55.341Z,100111
2018-05-29T07:14:21.481Z,100130
2018-05-29T07:16:47.537Z,100117
2018-05-29T07:19:13.634Z,100119
2018-05-29T07:21:40.466Z,100135
2018-05-29T07:24:06.554Z,100145
2018-05-29T07:26:32.651Z,100140
2018-05-29T07:28:59.491Z,100139
2018-05-29T07:31:25.590Z,100058
2018-05-29T07:33:51.687Z,100155
2018-05-29T07:36:17.782Z,100158
2018-05-29T07:38:43.871Z,100162
2018-05-29T07:41:09.979Z,100169
2018-05-29T07:43:36.075Z,100166
2018-05-29T07:46:02.170Z,100159
2018-05-29T07:48:28.282Z,100165
2018-05-29T07:50:55.127Z,100166
2018-05-29T07:53:21.971Z,100169
2018-05-29T07:55:48.799Z,100160
2018-05-29T07:58:14.907Z,100165
2018-05-29T08:00:41.013Z,100152
2018-05-29T08:03:07.112Z,100160
2018-05-29T08:05:33.203Z,100153
2018-05-29T08:07:59.305Z,100162
2018-05-29T08:10:25.404Z,100152
2018-05-29T08:12:51.501Z,100156
2018-05-29T08:15:18.335Z,100151
2018-05-29T08:17:45.187Z,100153
2018-05-29T08:20:12.014Z,100149
2018-05-29T08:22:38.109Z,100154
2018-05-29T08:25:04.197Z,100149
2018-05-29T08:27:30.303Z,100145
2018-05-29T08:29:57.134Z,100141
2018-05-29T08:32:23.230Z,100144
2018-05-29T08:34:49.326Z,100149
2018-05-29T08:37:15.546Z,100142
2018-05-29T08:39:41.670Z,100143
2018-05-29T08:42:08.492Z,100143
2018-05-29T08:44:34.581Z,100139
2018-05-29T08:47:00.686Z,100144
2018-05-29T08:49:26.787Z,100144
2018-05-29T08:51:52.878Z,100138
2018-05-29T08:54:18.975Z,100133
2018-05-29T08:56:45.079Z,100130
2018-05-29T08:59:11.181Z,100126
2018-05-29T09:01:38.026Z,100123
2018-05-29T09:04:04.939Z,100123
2018-05-29T09:06:30.987Z,100128
2018-05-29T09:08:57.093Z,100116
2018-05-29T09:11:24.661Z,100118
2018-05-29T09:13:50.763Z,100111
2018-05-29T09:16:16.887Z,100112
2018-05-29T09:18:42.999Z,100117
2018-05-29T09:21:09.104Z,100106
2018-05-29T09:23:35.206Z,100112
2018-05-29T09:26:05.823Z,100109
2018-05-29T09:28:31.898Z,100113
2018-05-29T09:31:06.454Z,100109
2018-05-29T09:33:32.550Z,100106
2018-05-29T09:35:58.635Z,100102
2018-05-29T09:38:24.737Z,100096
2018-05-29T09:40:50.835Z,100091
2018-05-29T09:43:16.956Z,100084
2018-05-29T09:45:43.087Z,100086
2018-05-29T09:48:09.157Z,100075
2018-05-29T09:50:36.729Z,100082
2018-05-29T09:53:03.561Z,100086
2018-05-29T09:55:30.401Z,100090
2018-05-29T09:57:56.485Z,100093
2018-05-29T10:00:28.705Z,100088
2018-05-29T10:02:55.553Z,100095
2018-05-29T10:05:24.614Z,100081
2018-05-29T10:07:50.710Z,100067
2018-05-29T10:10:16.806Z,100065
2018-05-29T10:12:43.638Z,100065
2018-05-29T10:15:10.474Z,100061
2018-05-29T10:17:36.567Z,100060
2018-05-29T10:20:02.682Z,100065
2018-05-29T10:22:28.771Z,100069
2018-05-29T10:24:55.605Z,100051
2018-05-29T10:27:22.434Z,100066
2018-05-29T10:29:48.517Z,100059
2018-05-29T10:32:14.593Z,100053
2018-05-29T10:34:41.430Z,100056
2018-05-29T10:37:07.522Z,100055
2018-05-29T10:39:33.635Z,100045
2018-05-29T10:41:59.730Z,100034
2018-05-29T10:44:25.835Z,100037
2018-05-29T10:46:52.674Z,100037
2018-05-29T10:49:18.762Z,100041
2018-05-29T10:51:44.860Z,100037
2018-05-29T10:54:10.954Z,100035
2018-05-29T10:56:37.790Z,100037
2018-05-29T10:59:03.882Z,100037
2018-05-29T11:01:29.969Z,100038
2018-05-29T11:03:56.062Z,100026
2018-05-29T11:06:22.146Z,100039
2018-05-29T11:08:48.238Z,100027
2018-05-29T11:11:15.530Z,100025
2018-05-29T11:13:41.621Z,100024
2018-05-29T11:16:08.463Z,100021
2018-05-29T11:18:35.300Z,100019
2018-05-29T11:21:02.141Z,100020
2018-05-29T11:23:28.989Z,100017
2018-05-29T11:25:55.839Z,100011
2018-05-29T11:28:22.666Z,100016
2018-05-29T11:30:49.510Z,100010
2018-05-29T11:33:16.346Z,100019
2018-05-29T11:35:42.446Z,100008
2018-05-29T11:38:08.542Z,100008
2018-05-29T11:40:34.638Z,100009
2018-05-29T11:43:01.474Z,100008
2018-05-29T11:45:28.326Z,100008
2018-05-29T11:47:55.166Z,99997
2018-05-29T11:50:21.994Z,100001
2018-05-29T11:52:48.085Z,99987
2018-05-29T11:55:14.183Z,99997
2018-05-29T11:57:40.306Z,99993
2018-05-29T12:00:06.409Z,99983
2018-05-29T12:02:33.250Z,99984
2018-05-29T12:05:00.106Z,99979
2018-05-29T12:07:26.955Z,99971
2018-05-29T12:09:53.042Z,99969
2018-05-29T12:12:26.089Z,99993
2018-05-29T12:14:52.186Z,99983
2018-05-29T12:17:19.026Z,99978
2018-05-29T12:19:45.862Z,99994
2018-05-29T12:22:12.699Z,99983
2018-05-29T12:24:38.807Z,99983
2018-05-29T12:27:04.897Z,99990
2018-05-29T12:29:30.975Z,99981
2018-05-29T12:31:57.069Z,99970
2018-05-29T12:34:23.186Z,99966
2018-05-29T12:36:49.265Z,99969
2018-05-29T12:39:16.090Z,99971
2018-05-29T12:41:42.194Z,99960
2018-05-29T12:44:08.297Z,99959
2018-05-29T12:46:34.389Z,99955
2018-05-29T12:49:01.226Z,99946
2018-05-29T12:51:28.071Z,99936
2018-05-29T12:53:54.902Z,99955
2018-05-29T12:56:20.982Z,99939
2018-05-29T12:58:47.082Z,99939
2018-05-29T13:01:13.183Z,99931
2018-05-29T13:03:39.287Z,99936
2018-05-29T13:06:05.378Z,99942
2018-05-29T13:08:31.481Z,99941
2018-05-29T13:10:57.575Z,99932
2018-05-29T13:13:23.671Z,99912
2018-05-29T13:15:49.763Z,99921
2018-05-29T13:18:15.857Z,99925
2018-05-29T13:20:41.938Z,99928
2018-05-29T13:23:08.037Z,99924
2018-05-29T13:25:34.125Z,99921
2018-05-29T13:28:00.241Z,99929
2018-05-29T13:30:26.894Z,99934
2018-05-29T13:32:52.998Z,99921
2018-05-29T13:35:19.090Z,99914
2018-05-29T13:37:45.202Z,99904
2018-05-29T13:40:12.029Z,99904
2018-05-29T13:42:38.889Z,99897
2018-05-29T13:45:05.726Z,99910
2018-05-29T13:47:32.562Z,99909
2018-05-29T13:49:59.413Z,99901
2018-05-29T13:52:26.246Z,99908
2018-05-29T13:54:53.089Z,99899
2018-05-29T13:57:19.922Z,99885
2018-05-29T13:59:46.018Z,99892
2018-05-29T14:02:12.102Z,99905
2018-05-29T14:04:38.202Z,99892
2018-05-29T14:07:04.277Z,99895
2018-05-29T14:09:30.374Z,99880
2018-05-29T14:11:57.193Z,99886
2018-05-29T14:14:23.289Z,99876
2018-05-29T14:16:49.378Z,99874
2018-05-29T14:19:15.485Z,99869
2018-05-29T14:21:42.331Z,99869
2018-05-29T14:24:09.197Z,99876
2018-05-29T14:26:35.281Z,99865
2018-05-29T14:29:01.395Z,99877
2018-05-29T14:31:27.485Z,99874
2018-05-29T14:33:53.680Z,99868
2018-05-29T14:36:19.734Z,99871
2018-05-29T14:38:45.856Z,99861
2018-05-29T14:41:11.966Z,99857
2018-05-29T14:43:38.052Z,99851
2018-05-29T14:46:04.142Z,99853
2018-05-29T14:48:30.234Z,99849
2018-05-29T14:50:57.073Z,99853
2018-05-29T14:53:23.902Z,99859
2018-05-29T14:55:50.758Z,99854
2018-05-29T14:58:17.594Z,99859
2018-05-29T15:00:44.435Z,99845
2018-05-29T15:03:10.543Z,99853
2018-05-29T15:05:38.117Z,99849
2018-05-29T15:08:04.199Z,99841
2018-05-29T15:10:30.350Z,99834
2018-05-29T15:12:56.445Z,99827
2018-05-29T15:15:22.551Z,99821
2018-05-29T15:17:48.642Z,99817
2018-05-29T15:20:15.439Z,99810
2018-05-29T15:22:42.227Z,99802
2018-05-29T15:25:08.332Z,99800
2018-05-29T15:27:34.417Z,99799
2018-05-29T15:30:00.516Z,99798
2018-05-29T15:32:27.347Z,99797
2018-05-29T15:34:53.446Z,99795
2018-05-29T15:37:19.538Z,99798
2018-05-29T15:39:45.637Z,99797
2018-05-29T15:42:12.478Z,99795
2018-05-29T15:44:39.322Z,99795
2018-05-29T15:47:06.153Z,99799
2018-05-29T15:49:32.237Z,99793
2018-05-29T15:51:58.343Z,99799
2018-05-29T15:54:24.443Z,99798
2018-05-29T15:56:51.286Z,99795
2018-05-29T15:59:18.128Z,99792
2018-05-29T16:01:44.963Z,99792
2018-05-29T16:04:11.062Z,99790
2018-05-29T16:06:37.162Z,99789
2018-05-29T16:09:03.254Z,99790
2018-05-29T16:11:30.124Z,99783
2018-05-29T16:13:56.229Z,99791
2018-05-29T16:16:23.057Z,99778
2018-05-29T16:18:49.150Z,99782
2018-05-29T16:21:15.246Z,99782
2018-05-29T16:23:41.351Z,99775
2018-05-29T16:26:08.185Z,99778
2018-05-29T16:28:35.022Z,99774
2018-05-29T16:31:01.145Z,99769
2018-05-29T16:33:27.250Z,99776
2018-05-29T16:35:53.397Z,99777
2018-05-29T16:38:19.494Z,99786
2018-05-29T16:40:45.626Z,99785
2018-05-29T16:43:11.693Z,99781
2018-05-29T16:45:38.534Z,99780
2018-05-29T16:48:08.666Z,99774
2018-05-29T16:50:34.756Z,99773
2018-05-29T16:53:00.853Z,99783
2018-05-29T16:55:26.954Z,99779
2018-05-29T16:57:53.058Z,99793
2018-05-29T17:00:19.895Z,99792
2018-05-29T17:02:46.738Z,99792
2018-05-29T17:05:13.582Z,99794
2018-05-29T17:07:40.436Z,99794
2018-05-29T17:10:07.266Z,99793
2018-05-29T17:12:34.115Z,99798
2018-05-29T17:15:00.216Z,99790
2018-05-29T17:17:26.321Z,99795
2018-05-29T17:19:52.423Z,99800
2018-05-29T17:22:18.533Z,99800
2018-05-29T17:24:44.629Z,99806
2018-05-29T17:27:11.470Z,99804
2018-05-29T17:29:37.583Z,99803
2018-05-29T17:32:03.693Z,99798
2018-05-29T17:34:29.764Z,99797
2018-05-29T17:36:55.848Z,99807
2018-05-29T17:39:21.941Z,99821
2018-05-29T17:41:48.021Z,99817
2018-05-29T17:44:14.126Z,99811
2018-05-29T17:46:40.218Z,99802
2018-05-29T17:49:06.317Z,99806
2018-05-29T17:51:33.150Z,99818
2018-05-29T17:53:59.242Z,99807
2018-05-29T17:56:25.372Z,99804
2018-05-29T17:58:51.437Z,99813
2018-05-29T18:01:33.006Z,99805
2018-05-29T18:04:02.651Z,99800
2018-05-29T18:06:28.751Z,99809
2018-05-29T18:08:54.850Z,99809
2018-05-29T18:11:20.942Z,99800
2018-05-29T18:13:47.038Z,99803
2018-05-29T18:16:13.877Z,99798
2018-05-29T18:18:40.719Z,99796
2018-05-29T18:21:06.818Z,99792
2018-05-29T18:23:46.189Z,99796
2018-05-29T18:26:13.018Z,99794
2018-05-29T18:28:39.119Z,99799
2018-05-29T18:31:05.253Z,99798
2018-05-29T18:34:00.051Z,99811
2018-05-29T18:36:26.159Z,99802
2018-05-29T18:38:52.273Z,99807
2018-05-29T18:41:18.371Z,99807
2018-05-29T18:43:45.212Z,99808
2018-05-29T18:46:12.077Z,99813
2018-05-29T18:48:38.887Z,99817
2018-05-29T18:51:05.717Z,99813
2018-05-29T18:53:31.817Z,99832
2018-05-29T18:55:57.897Z,99833
2018-05-29T18:58:24.727Z,99838
2018-05-29T19:00:51.562Z,99839
2018-05-29T19:03:17.676Z,99847
2018-05-29T19:05:43.784Z,99850
2018-05-29T19:08:09.869Z,99849
2018-05-29T19:10:35.974Z,99848
2018-05-29T19:13:02.799Z,99851
2018-05-29T19:15:28.910Z,99855
2018-05-29T19:17:55.741Z,99858
2018-05-29T19:20:21.842Z,99852
2018-05-29T19:22:47.952Z,99858
2018-05-29T19:25:14.046Z,99860
2018-05-29T19:27:40.133Z,99864
2018-05-29T19:30:06.222Z,99867
2018-05-29T19:32:33.078Z,99872
2018-05-29T19:34:59.186Z,99878
2018-05-29T19:37:26.038Z,99878
2018-05-29T19:39:52.922Z,99879
2018-05-29T19:42:19.005Z,99882
2018-05-29T19:44:45.894Z,99879
2018-05-29T19:47:11.945Z,99888
2018-05-29T19:49:38.038Z,99895
2018-05-29T19:52:04.129Z,99892
2018-05-29T19:54:30.245Z,99897
2018-05-29T19:56:57.083Z,99892
2018-05-29T19:59:23.961Z,99878
2018-05-29T20:01:50.042Z,99881
2018-05-29T20:04:16.143Z,99886
2018-05-29T20:06:42.246Z,99888
2018-05-29T20:09:08.338Z,99896
2018-05-29T20:11:35.185Z,99903
2018-05-29T20:14:01.282Z,99907
2018-05-29T20:16:27.380Z,99909
2018-05-29T20:18:53.475Z,99913
2018-05-29T20:21:19.574Z,99899
2018-05-29T20:23:46.416Z,99897
2018-05-29T20:26:13.259Z,99902
2018-05-29T20:28:40.086Z,99893
2018-05-29T20:31:06.178Z,99901
2018-05-29T20:33:32.259Z,99903
2018-05-29T20:35:59.097Z,99896
2018-05-29T20:38:25.925Z,99897
2018-05-29T20:40:52.029Z,99902
2018-05-29T20:43:18.127Z,99911
2018-05-29T20:45:44.229Z,99915
2018-05-29T20:48:11.053Z,99920
2018-05-29T20:50:37.902Z,99931
2018-05-29T20:53:04.739Z,99932
2018-05-29T20:55:30.822Z,99942
2018-05-29T20:57:56.919Z,99948
2018-05-29T21:00:23.006Z,99963
2018-05-29T21:02:49.096Z,99959
2018-05-29T21:05:15.185Z,99940
2018-05-29T21:07:42.030Z,99938
2018-05-29T21:10:08.881Z,99933
2018-05-29T21:12:34.978Z,99923
2018-05-29T21:15:01.070Z,99917
2018-05-29T21:17:27.157Z,99906
2018-05-29T21:19:53.254Z,99916
2018-05-29T21:22:19.403Z,99921
2018-05-29T21:24:45.470Z,99921
2018-05-29T21:27:11.566Z,99913
2018-05-29T21:29:37.653Z,99915
2018-05-29T21:32:03.747Z,99914
2018-05-29T21:34:29.837Z,99919
2018-05-29T21:36:55.945Z,99920
2018-05-29T21:39:39.473Z,99918
2018-05-29T21:42:05.563Z,99911
2018-05-29T21:44:31.667Z,99905
2018-05-29T21:46:57.770Z,99900
2018-05-29T21:49:24.602Z,99897
2018-05-29T21:51:51.441Z,99883
2018-05-29T21:54:17.530Z,99887
2018-05-29T21:56:43.622Z,99870
2018-05-29T21:59:09.709Z,99876
2018-05-29T22:01:35.799Z,99873
2018-05-29T22:04:05.178Z,99875
2018-05-29T22:06:31.296Z,99863
2018-05-29T22:15:03.105Z,99854
2018-05-29T22:17:29.211Z,99861
2018-05-29T22:19:56.050Z,99855
2018-05-29T22:22:50.314Z,99854
2018-05-29T22:25:16.402Z,99860
2018-05-29T22:27:42.514Z,99865
2018-05-29T22:30:08.620Z,99866
2018-05-29T22:32:35.477Z,99867
2018-05-29T22:35:01.570Z,99869
2018-05-29T22:37:27.682Z,99873
2018-05-29T22:39:53.776Z,99877
2018-05-29T22:42:19.870Z,99872
2018-05-29T22:44:46.706Z,99886
2018-05-29T22:47:13.553Z,99892
2018-05-29T22:49:40.434Z,99894
2018-05-29T22:52:06.521Z,99888
2018-05-29T22:54:33.372Z,99913
2018-05-29T22:57:00.205Z,99917
2018-05-29T22:59:27.045Z,99924
2018-05-29T23:01:54.519Z,99926
2018-05-29T23:04:20.623Z,99920
2018-05-29T23:06:46.711Z,99923
2018-05-29T23:09:12.810Z,99936
2018-05-29T23:11:38.901Z,99926
2018-05-29T23:14:04.989Z,99923
2018-05-29T23:16:31.091Z,99930
2018-05-29T23:18:57.190Z,99924
2018-05-29T23:21:24.018Z,99925
2018-05-29T23:23:50.129Z,99918
2018-05-29T23:26:16.233Z,99918
2018-05-29T23:28:42.335Z,99922
2018-05-29T23:31:08.434Z,99918
2018-05-29T23:33:35.275Z,99922
2018-05-29T23:36:04.138Z,99923
2018-05-29T23:38:30.252Z,99912
2018-05-29T23:40:56.351Z,99907
2018-05-29T23:43:22.446Z,99908
2018-05-29T23:45:49.303Z,99906
2018-05-29T23:48:15.416Z,99909
2018-05-29T23:50:42.261Z,99907
2018-05-29T23:53:09.086Z,99903
2018-05-29T23:55:35.186Z,99899
2018-05-29T23:58:01.284Z,99900
